Aérodrome :
LOGIN :

S'inscrire | Disclaimer

   EN    FR    IT 

 










Légende :    VFR   VFR Marginal   IFR   IFR Intensif   IFR Très Intensif
Visi : 
Plafond : 
>= 8 km
>= 3000ft
5 à 8 km
1000 à 3000 ft
1500m à 5 km
500 à 1000 ft
800 à 1500m
200 à 500 ft
< 800m
< 200 ft
Symboles :   Orages  Brouillard  Fortes neiges  Fortes précipitations  Vent > 20 kt
SIGMETs :   Divers  Orages  Givrage  Turbulence  Onde Orograph.  Cendres Volcan.






- Altitude de l'aérodrome : 499 ft
- Code IATA : TLS


LFBO - Toulouse / Blagnac

DERNIER METAR :
  • 301600Z AUTO 32006KT 280V360 9999 BKN028 BKN042 BKN050 23/16 Q1016 NOSIG

METARs EXPIRÉS :
  • 301530Z AUTO 32008KT 9999 FEW026 BKN034 BKN052 22/16 Q1016 NOSIG
  • 301500Z AUTO 31010KT 9999 OVC029 22/16 Q1016 NOSIG
  • 301430Z AUTO 32009KT 9999 BKN025 BKN032 BKN038 22/16 Q1016 NOSIG
  • 301400Z AUTO 32005KT 280V350 9999 BKN023 BKN029 BKN039 22/17 Q1015 NOSIG
  • 301330Z AUTO 31007KT 270V360 9999 BKN022 BKN027 BKN041 22/17 Q1016 NOSIG

TAF TAF LFBO
Valide du 30 à 12h jusqu'au 31 à 18h UTC


301100Z 3012/3118 31012KT 9999 BKN025
BECMG 3013/3015 29005KT
BECMG 3015/3017 CAVOK
PROB40
TEMPO 3019/3022 -RA BKN035
PROB30
TEMPO 3104/3106 -RA BKN045
PROB30
TEMPO 3113/3116 -SHRA SCT018TCU BKN030
ATIS : +33 5 62 74 66 36



MET'MAP, la Météo Aéronautique d'un coup d'oeil ! - Copyright ORBIFLY Décembre 2007 - Disclaimer

ORBIFLY MET'MAP TEAM :

Programmation & Développement : Alexandra Zaïnal
Sur une idée originale de : Baudouin d'Aumeries
Assistance à la programmation : Marc-Olivier Méhu
Soutien technique & logistique : Manuel Goepfert

Contact : metmap@orbifly.com




SOURCES & CREDITS :

   NOAA